createdAt,value
2017-06-24T00:02:09.791Z,64.90
2017-06-24T00:04:37.350Z,63.10
2017-06-24T00:07:04.930Z,62.80
2017-06-24T00:09:33.259Z,62.20
2017-06-24T00:12:00.814Z,62.20
2017-06-24T00:14:28.442Z,61.70
2017-06-24T00:16:55.986Z,61.90
2017-06-24T00:19:24.321Z,62.50
2017-06-24T00:21:51.898Z,62.50
2017-06-24T00:24:19.462Z,62.80
2017-06-24T00:26:47.033Z,62.60
2017-06-24T00:29:14.613Z,62.80
2017-06-24T00:31:43.126Z,62.80
2017-06-24T00:34:10.719Z,62.70
2017-06-24T00:36:38.285Z,63.20
2017-06-24T00:39:05.854Z,63.60
2017-06-24T00:41:33.464Z,63.20
2017-06-24T00:44:01.006Z,63.20
2017-06-24T00:46:28.561Z,63.40
2017-06-24T00:48:56.948Z,63.80
2017-06-24T00:51:25.272Z,63.90
2017-06-24T00:53:52.842Z,63.80
2017-06-24T00:56:20.429Z,64.10
2017-06-24T00:58:48.889Z,64.30
2017-06-24T01:01:16.454Z,64.30
2017-06-24T01:03:44.014Z,64.10
2017-06-24T01:06:11.634Z,64.50
2017-06-24T01:08:39.195Z,63.90
2017-06-24T01:11:06.838Z,64.20
2017-06-24T01:13:34.430Z,64.00
2017-06-24T01:16:01.987Z,64.20
2017-06-24T01:18:29.559Z,64.40
2017-06-24T01:20:57.244Z,64.60
2017-06-24T01:23:24.818Z,65.00
2017-06-24T01:25:52.390Z,65.60
2017-06-24T01:28:20.744Z,66.20
2017-06-24T01:30:48.301Z,66.20
2017-06-24T01:33:15.869Z,66.30
2017-06-24T01:35:43.531Z,66.30
2017-06-24T01:38:11.106Z,66.60
2017-06-24T01:40:38.701Z,66.80
2017-06-24T01:43:06.267Z,66.80
2017-06-24T01:45:33.866Z,67.00
2017-06-24T01:48:01.413Z,67.30
2017-06-24T01:50:29.006Z,67.70
2017-06-24T01:52:56.578Z,67.80
2017-06-24T01:55:24.951Z,68.50
2017-06-24T01:57:52.512Z,69.20
2017-06-24T02:00:20.086Z,68.40
2017-06-24T02:02:48.423Z,68.80
2017-06-24T02:05:15.983Z,68.70
2017-06-24T02:07:43.571Z,69.00
2017-06-24T02:10:11.146Z,69.20
2017-06-24T02:12:39.492Z,69.40
2017-06-24T02:15:07.081Z,69.40
2017-06-24T02:17:35.413Z,69.50
2017-06-24T02:20:02.992Z,69.40
2017-06-24T02:22:30.598Z,69.50
2017-06-24T02:24:59.104Z,69.50
2017-06-24T02:27:26.668Z,69.90
2017-06-24T02:29:54.271Z,70.00
2017-06-24T02:32:21.837Z,70.10
2017-06-24T02:34:49.403Z,70.10
2017-06-24T02:37:17.746Z,70.80
2017-06-24T02:39:45.492Z,70.40
2017-06-24T02:42:13.053Z,70.40
2017-06-24T02:44:41.206Z,70.40
2017-06-24T02:47:08.801Z,70.80
2017-06-24T02:49:36.366Z,70.60
2017-06-24T02:52:03.915Z,70.80
2017-06-24T02:54:31.658Z,70.70
2017-06-24T02:56:59.223Z,70.70
2017-06-24T02:59:26.802Z,70.80
2017-06-24T03:01:54.374Z,70.90
2017-06-24T03:04:21.922Z,70.60
2017-06-24T03:06:49.522Z,70.70
2017-06-24T03:09:17.085Z,70.90
2017-06-24T03:11:44.650Z,71.00
2017-06-24T03:14:12.219Z,70.90
2017-06-24T03:16:40.593Z,71.10
2017-06-24T03:19:08.187Z,71.00
2017-06-24T03:21:35.747Z,71.20
2017-06-24T03:24:03.292Z,71.10
2017-06-24T03:26:30.861Z,71.20
2017-06-24T03:28:58.466Z,71.10
2017-06-24T03:31:26.030Z,71.10
2017-06-24T03:33:53.599Z,71.10
2017-06-24T03:36:21.170Z,71.10
2017-06-24T03:38:48.722Z,71.20
2017-06-24T03:41:16.281Z,71.30
2017-06-24T03:43:43.886Z,71.30
2017-06-24T03:46:11.497Z,71.60
2017-06-24T03:48:39.050Z,71.60
2017-06-24T03:51:06.649Z,71.20
2017-06-24T03:53:34.970Z,70.40
2017-06-24T03:56:02.530Z,70.30
2017-06-24T03:58:30.134Z,70.00
2017-06-24T04:00:57.686Z,69.50
2017-06-24T04:03:25.312Z,69.00
2017-06-24T04:05:52.922Z,68.60
2017-06-24T04:08:20.489Z,68.40
2017-06-24T04:10:48.837Z,68.40
2017-06-24T04:13:16.415Z,67.80
2017-06-24T04:15:44.028Z,68.20
2017-06-24T04:18:11.574Z,68.10
2017-06-24T04:20:39.161Z,68.40
2017-06-24T04:23:06.734Z,68.30
2017-06-24T04:25:34.290Z,67.80
2017-06-24T04:28:01.885Z,68.00
2017-06-24T04:30:29.461Z,67.20
2017-06-24T04:32:57.799Z,66.60
2017-06-24T04:35:25.391Z,66.60
2017-06-24T04:37:52.944Z,66.00
2017-06-24T04:40:20.497Z,66.30
2017-06-24T04:42:48.098Z,65.90
2017-06-24T04:45:16.430Z,66.10
2017-06-24T04:47:44.001Z,66.10
2017-06-24T04:50:11.585Z,66.50
2017-06-24T04:52:39.902Z,67.00
2017-06-24T04:55:07.467Z,66.70
2017-06-24T04:57:35.057Z,66.30
2017-06-24T05:00:02.647Z,66.40
2017-06-24T05:02:30.979Z,66.50
2017-06-24T05:04:58.586Z,66.40
2017-06-24T05:07:27.034Z,66.80
2017-06-24T05:09:54.623Z,66.10
2017-06-24T05:12:22.183Z,65.80
2017-06-24T05:14:49.750Z,65.60
2017-06-24T05:17:17.341Z,65.50
2017-06-24T05:19:44.908Z,65.10
2017-06-24T05:22:12.599Z,64.70
2017-06-24T05:24:40.158Z,64.30
2017-06-24T05:27:07.714Z,63.40
2017-06-24T05:29:35.297Z,60.40
2017-06-24T05:32:02.882Z,58.60
2017-06-24T05:34:31.210Z,61.70
2017-06-24T05:36:58.779Z,60.70
2017-06-24T05:39:26.362Z,61.10
2017-06-24T05:41:53.946Z,61.60
2017-06-24T05:44:22.316Z,62.80
2017-06-24T05:46:49.891Z,62.80
2017-06-24T05:49:17.449Z,63.50
2017-06-24T05:51:45.818Z,64.20
2017-06-24T05:54:13.382Z,64.10
2017-06-24T05:56:41.711Z,64.70
2017-06-24T05:59:09.402Z,64.60
2017-06-24T06:01:36.985Z,64.70
2017-06-24T06:04:04.575Z,65.00
2017-06-24T06:06:32.149Z,65.50
2017-06-24T06:08:59.742Z,65.10
2017-06-24T06:11:27.311Z,64.70
2017-06-24T06:13:54.945Z,64.80
2017-06-24T06:16:22.521Z,63.90
2017-06-24T06:18:50.094Z,63.90
2017-06-24T06:21:17.738Z,64.00
2017-06-24T06:23:45.308Z,63.80
2017-06-24T06:26:12.874Z,63.60
2017-06-24T06:28:40.472Z,63.30
2017-06-24T06:31:08.830Z,63.10
2017-06-24T06:33:36.395Z,63.00
2017-06-24T06:36:04.741Z,64.80
2017-06-24T06:38:32.310Z,64.20
2017-06-24T06:40:59.906Z,64.00
2017-06-24T06:43:28.271Z,63.70
2017-06-24T06:45:55.822Z,63.60
2017-06-24T06:48:23.392Z,63.00
2017-06-24T06:50:50.997Z,61.80
2017-06-24T06:53:19.133Z,61.80
2017-06-24T06:55:47.473Z,62.00
2017-06-24T06:58:15.053Z,61.80
2017-06-24T07:00:42.626Z,61.60
2017-06-24T07:03:10.199Z,60.00
2017-06-24T07:05:37.749Z,59.20
2017-06-24T07:08:05.323Z,59.10
2017-06-24T07:10:33.637Z,58.70
2017-06-24T07:13:01.227Z,58.60
2017-06-24T07:15:28.814Z,58.60
2017-06-24T07:17:56.426Z,57.70
2017-06-24T07:20:24.004Z,58.20
2017-06-24T07:22:51.614Z,58.50
2017-06-24T07:25:19.945Z,58.40
2017-06-24T07:27:47.531Z,58.30
2017-06-24T07:30:15.090Z,58.70
2017-06-24T07:32:42.657Z,58.80
2017-06-24T07:35:10.229Z,58.70
2017-06-24T07:37:38.561Z,58.70
2017-06-24T07:40:06.153Z,58.60
2017-06-24T07:42:33.734Z,59.00
2017-06-24T07:45:01.293Z,59.10
2017-06-24T07:47:28.867Z,58.90
2017-06-24T07:49:56.441Z,59.40
2017-06-24T07:52:23.998Z,59.20
2017-06-24T07:54:51.607Z,59.50
2017-06-24T07:57:19.174Z,59.80
2017-06-24T07:59:46.769Z,59.40
2017-06-24T08:02:14.329Z,58.90
2017-06-24T08:04:41.902Z,58.70
2017-06-24T08:07:09.510Z,57.40
2017-06-24T08:09:37.102Z,55.40
2017-06-24T08:12:05.482Z,52.00
2017-06-24T08:14:33.066Z,52.00
2017-06-24T08:17:00.660Z,50.30
2017-06-24T08:19:28.217Z,48.00
2017-06-24T08:21:55.831Z,47.10
2017-06-24T08:24:23.395Z,47.60
2017-06-24T08:26:50.993Z,49.30
2017-06-24T08:29:18.582Z,51.00
2017-06-24T08:31:46.141Z,51.40
2017-06-24T08:34:13.721Z,48.80
2017-06-24T08:36:41.315Z,47.40
2017-06-24T08:39:08.898Z,45.70
2017-06-24T08:41:36.482Z,44.90
2017-06-24T08:44:04.041Z,45.10
2017-06-24T08:46:31.600Z,47.30
2017-06-24T08:48:59.205Z,48.50
2017-06-24T08:51:27.621Z,42.90
2017-06-24T08:53:55.202Z,42.90
2017-06-24T08:56:22.788Z,42.80
2017-06-24T08:58:50.405Z,41.80
2017-06-24T09:01:17.999Z,41.90
2017-06-24T09:03:45.602Z,42.80
2017-06-24T09:06:13.918Z,40.50
2017-06-24T09:08:41.488Z,41.00
2017-06-24T09:11:09.090Z,40.00
2017-06-24T09:13:37.430Z,40.40
2017-06-24T09:16:05.095Z,40.30
2017-06-24T09:18:32.666Z,40.50
2017-06-24T09:21:00.245Z,43.20
2017-06-24T09:23:27.822Z,43.50
2017-06-24T09:25:55.410Z,44.20
2017-06-24T09:28:22.981Z,44.20
2017-06-24T09:30:50.538Z,46.00
2017-06-24T09:33:18.114Z,46.20
2017-06-24T09:35:45.700Z,47.00
2017-06-24T09:38:13.297Z,46.20
2017-06-24T09:40:40.901Z,47.80
2017-06-24T09:43:08.458Z,47.20
2017-06-24T09:45:36.093Z,48.20
2017-06-24T09:48:03.685Z,47.20
2017-06-24T09:50:31.235Z,48.50
2017-06-24T09:52:58.826Z,48.40
2017-06-24T09:55:26.424Z,48.90
2017-06-24T09:57:53.986Z,50.30
2017-06-24T10:00:21.534Z,50.30
2017-06-24T10:02:49.161Z,51.60
2017-06-24T10:05:16.751Z,52.10
2017-06-24T10:07:44.347Z,52.30
2017-06-24T10:10:11.937Z,52.10
2017-06-24T10:12:39.522Z,52.70
2017-06-24T10:15:07.089Z,52.80
2017-06-24T10:17:35.438Z,53.50
2017-06-24T10:20:03.057Z,52.80
2017-06-24T10:22:30.631Z,52.50
2017-06-24T10:24:58.194Z,52.00
2017-06-24T10:27:25.806Z,52.70
2017-06-24T10:29:53.364Z,51.30
2017-06-24T10:32:20.966Z,51.00
2017-06-24T10:34:48.527Z,51.60
2017-06-24T10:37:16.199Z,51.20
2017-06-24T10:39:43.768Z,50.60
2017-06-24T10:42:11.350Z,51.20
2017-06-24T10:44:38.930Z,50.70
2017-06-24T10:47:06.519Z,50.40
2017-06-24T10:49:34.867Z,51.30
2017-06-24T10:52:02.451Z,51.20
2017-06-24T10:54:30.045Z,50.70
2017-06-24T10:56:57.630Z,50.50
2017-06-24T10:59:25.248Z,51.10
2017-06-24T11:01:52.831Z,50.40
2017-06-24T11:04:20.402Z,50.10
2017-06-24T11:06:48.013Z,50.30
2017-06-24T11:09:16.362Z,50.70
2017-06-24T11:11:43.933Z,50.70
2017-06-24T11:14:11.850Z,51.20
2017-06-24T11:16:39.416Z,50.90
2017-06-24T11:19:06.968Z,51.50
2017-06-24T11:21:34.541Z,51.40
2017-06-24T11:24:02.115Z,52.50
2017-06-24T11:26:29.675Z,52.40
2017-06-24T11:28:57.270Z,53.30
2017-06-24T11:31:24.846Z,53.10
2017-06-24T11:33:52.421Z,53.70
2017-06-24T11:36:20.048Z,53.10
2017-06-24T11:38:47.656Z,53.10
2017-06-24T11:41:15.251Z,53.30
2017-06-24T11:43:42.827Z,53.00
2017-06-24T11:46:10.417Z,53.00
2017-06-24T11:48:37.982Z,53.30
2017-06-24T11:51:05.547Z,53.60
2017-06-24T11:53:33.135Z,52.70
2017-06-24T11:56:00.726Z,53.30
2017-06-24T11:58:28.313Z,53.20
2017-06-24T12:00:55.906Z,53.50
2017-06-24T12:03:23.510Z,54.00
2017-06-24T12:05:51.179Z,54.10
2017-06-24T12:08:18.776Z,53.80
2017-06-24T12:10:47.140Z,53.50
2017-06-24T12:13:14.750Z,53.30
2017-06-24T12:15:42.338Z,53.40
2017-06-24T12:18:09.936Z,53.60
2017-06-24T12:20:37.514Z,53.00
2017-06-24T12:23:05.069Z,52.90
2017-06-24T12:25:32.697Z,53.10
2017-06-24T12:28:00.288Z,52.60
2017-06-24T12:30:28.615Z,53.80
2017-06-24T12:32:56.555Z,53.70
2017-06-24T12:35:24.178Z,53.50
2017-06-24T12:37:52.716Z,52.20
2017-06-24T12:40:20.281Z,52.10
2017-06-24T12:42:47.869Z,53.80
2017-06-24T12:45:15.505Z,53.00
2017-06-24T12:47:43.054Z,52.10
2017-06-24T12:50:10.627Z,53.50
2017-06-24T12:52:38.216Z,52.60
2017-06-24T12:55:05.834Z,52.40
2017-06-24T12:57:33.485Z,51.40
2017-06-24T13:00:01.051Z,51.90
2017-06-24T13:02:28.634Z,53.40
2017-06-24T13:04:56.202Z,54.40
2017-06-24T13:07:23.770Z,54.60
2017-06-24T13:09:51.362Z,54.70
2017-06-24T13:12:18.925Z,54.00
2017-06-24T13:14:47.324Z,56.30
2017-06-24T13:17:14.966Z,55.80
2017-06-24T13:19:43.289Z,54.60
2017-06-24T13:22:10.858Z,54.50
2017-06-24T13:24:38.439Z,55.00
2017-06-24T13:27:05.991Z,55.00
2017-06-24T13:29:33.557Z,56.60
2017-06-24T13:32:01.193Z,57.10
2017-06-24T13:34:28.765Z,57.30
2017-06-24T13:36:56.346Z,57.50
2017-06-24T13:39:23.914Z,58.00
2017-06-24T13:41:51.569Z,58.70
2017-06-24T13:44:19.139Z,59.50
2017-06-24T13:46:46.702Z,59.80
2017-06-24T13:49:14.285Z,59.60
2017-06-24T13:51:41.886Z,60.10
2017-06-24T13:54:09.473Z,61.70
2017-06-24T13:56:37.059Z,61.20
2017-06-24T13:59:04.642Z,61.40
2017-06-24T14:01:32.221Z,61.20
2017-06-24T14:03:59.798Z,60.90
2017-06-24T14:06:27.352Z,59.90
2017-06-24T14:08:55.107Z,60.50
2017-06-24T14:11:22.727Z,59.70
2017-06-24T14:13:50.313Z,60.00
2017-06-24T14:16:17.912Z,59.80
2017-06-24T14:18:46.655Z,59.80
2017-06-24T14:21:14.989Z,61.60
2017-06-24T14:23:42.610Z,61.50
2017-06-24T14:26:10.187Z,62.80
2017-06-24T14:28:37.782Z,62.60
2017-06-24T14:31:05.371Z,63.00
2017-06-24T14:33:33.731Z,64.30
2017-06-24T14:36:01.330Z,64.10
2017-06-24T14:38:28.906Z,64.80
2017-06-24T14:40:56.461Z,65.00
2017-06-24T14:43:24.066Z,65.30
2017-06-24T14:45:51.639Z,65.40
2017-06-24T14:48:19.223Z,65.30
2017-06-24T14:50:46.811Z,65.70
2017-06-24T14:53:14.389Z,65.70
2017-06-24T14:55:41.962Z,65.50
2017-06-24T14:58:09.568Z,65.50
2017-06-24T15:00:37.194Z,65.80
2017-06-24T15:03:04.746Z,65.60
2017-06-24T15:05:32.341Z,66.10
2017-06-24T15:08:00.681Z,66.90
2017-06-24T15:10:28.317Z,66.00
2017-06-24T15:12:55.877Z,66.30
2017-06-24T15:15:23.426Z,66.00
2017-06-24T15:17:51.006Z,66.20
2017-06-24T15:20:18.569Z,66.10
2017-06-24T15:22:46.191Z,65.10
2017-06-24T15:25:14.561Z,64.30
2017-06-24T15:27:42.125Z,64.10
2017-06-24T15:30:10.499Z,65.10
2017-06-24T15:32:38.070Z,65.10
2017-06-24T15:35:06.402Z,67.20
2017-06-24T15:37:33.988Z,66.50
2017-06-24T15:40:01.580Z,66.30
2017-06-24T15:42:29.985Z,65.70
2017-06-24T15:44:57.549Z,65.20
2017-06-24T15:47:25.119Z,65.70
2017-06-24T15:49:52.722Z,65.50
2017-06-24T15:52:20.372Z,64.80
2017-06-24T15:54:47.933Z,64.80
2017-06-24T15:57:15.531Z,65.20
2017-06-24T15:59:43.099Z,65.70
2017-06-24T16:02:10.702Z,65.40
2017-06-24T16:04:38.262Z,65.90
2017-06-24T16:07:05.846Z,64.70
2017-06-24T16:09:33.427Z,65.20
2017-06-24T16:12:01.806Z,65.60
2017-06-24T16:14:30.204Z,66.40
2017-06-24T16:16:57.788Z,66.30
2017-06-24T16:19:25.364Z,66.10
2017-06-24T16:21:52.994Z,67.90
2017-06-24T16:24:20.578Z,69.20
2017-06-24T16:26:48.204Z,68.50
2017-06-24T16:29:15.815Z,68.20
2017-06-24T16:31:43.401Z,67.90
2017-06-24T16:34:11.015Z,66.60
2017-06-24T16:36:38.600Z,67.00
2017-06-24T16:39:06.196Z,67.40
2017-06-24T16:41:34.236Z,67.30
2017-06-24T16:44:02.087Z,68.00
2017-06-24T16:46:29.662Z,68.20
2017-06-24T16:48:57.304Z,68.70
2017-06-24T16:51:24.876Z,68.30
2017-06-24T16:53:52.497Z,68.80
2017-06-24T16:56:20.074Z,69.30
2017-06-24T16:58:47.661Z,69.40
2017-06-24T17:01:15.348Z,69.50
2017-06-24T17:03:42.919Z,69.80
2017-06-24T17:06:10.511Z,69.40
2017-06-24T17:08:38.098Z,69.80
2017-06-24T17:11:05.686Z,69.90
2017-06-24T17:13:33.450Z,69.90
2017-06-24T17:16:01.014Z,69.90
2017-06-24T17:18:28.898Z,69.30
2017-06-24T17:20:56.494Z,69.40
2017-06-24T17:23:24.070Z,69.70
2017-06-24T17:25:51.728Z,69.50
2017-06-24T17:28:19.298Z,69.50
2017-06-24T17:30:46.912Z,69.50
2017-06-24T17:33:14.522Z,69.50
2017-06-24T17:35:42.164Z,69.60
2017-06-24T17:38:09.730Z,69.70
2017-06-24T17:40:37.348Z,70.30
2017-06-24T17:43:04.903Z,69.10
2017-06-24T17:45:32.466Z,68.40
2017-06-24T17:48:00.074Z,67.40
2017-06-24T17:50:27.632Z,66.90
2017-06-24T17:52:55.257Z,65.90
2017-06-24T17:55:22.834Z,65.10
2017-06-24T17:57:50.442Z,65.00
2017-06-24T18:00:18.025Z,65.60
2017-06-24T18:02:45.690Z,65.70
2017-06-24T18:05:13.254Z,65.30
2017-06-24T18:07:40.837Z,66.60
2017-06-24T18:10:09.181Z,66.50
2017-06-24T18:12:36.792Z,66.50
2017-06-24T18:15:04.391Z,66.20
2017-06-24T18:17:31.993Z,65.50
2017-06-24T18:19:59.884Z,65.60
2017-06-24T18:22:27.578Z,65.40
2017-06-24T18:24:55.148Z,65.70
2017-06-24T18:27:22.758Z,65.70
2017-06-24T18:29:50.406Z,66.20
2017-06-24T18:32:18.892Z,67.00
2017-06-24T18:34:46.580Z,67.00
2017-06-24T18:37:14.161Z,67.50
2017-06-24T18:39:41.763Z,68.30
2017-06-24T18:42:09.344Z,69.40
2017-06-24T18:44:37.811Z,70.20
2017-06-24T18:47:05.402Z,69.50
2017-06-24T18:49:33.003Z,70.50
2017-06-24T18:52:00.645Z,71.80
2017-06-24T18:54:28.263Z,73.40
2017-06-24T18:56:55.903Z,74.00
2017-06-24T18:59:23.707Z,75.40
2017-06-24T19:01:52.055Z,78.30
2017-06-24T19:04:19.636Z,79.10
2017-06-24T19:06:47.275Z,80.20
2017-06-24T19:09:14.899Z,82.00
2017-06-24T19:11:42.534Z,83.40
2017-06-24T19:14:11.528Z,84.80
2017-06-24T19:16:39.927Z,86.00
2017-06-24T19:19:07.641Z,86.00
2017-06-24T19:21:35.274Z,87.10
2017-06-24T19:24:02.891Z,88.10
2017-06-24T19:26:30.519Z,88.80
2017-06-24T19:28:58.126Z,88.90
2017-06-24T19:31:26.511Z,89.30
2017-06-24T19:33:54.881Z,89.70
2017-06-24T19:36:22.472Z,89.60
2017-06-24T19:38:50.088Z,90.00
2017-06-24T19:41:17.696Z,89.70
2017-06-24T19:43:45.357Z,90.20
2017-06-24T19:46:12.975Z,90.20
2017-06-24T19:48:40.613Z,90.40
2017-06-24T19:51:08.247Z,90.60
2017-06-24T19:53:35.845Z,90.50
2017-06-24T19:56:03.475Z,90.70
2017-06-24T19:58:31.067Z,90.60
2017-06-24T20:00:58.657Z,90.90
2017-06-24T20:03:26.264Z,90.60
2017-06-24T20:05:53.872Z,90.70
2017-06-24T20:08:21.494Z,90.80
2017-06-24T20:10:49.254Z,90.70
2017-06-24T20:13:16.970Z,90.70
2017-06-24T20:15:44.618Z,90.80
2017-06-24T20:18:13.029Z,90.90
2017-06-24T20:20:41.385Z,91.00
2017-06-24T20:23:09.734Z,91.20
2017-06-24T20:25:37.355Z,91.00
2017-06-24T20:28:04.941Z,91.00
2017-06-24T20:30:32.507Z,91.00
2017-06-24T20:33:00.146Z,91.10
2017-06-24T20:35:28.557Z,91.10
2017-06-24T20:37:56.402Z,91.30
2017-06-24T20:40:23.973Z,91.00
2017-06-24T20:42:51.590Z,90.90
2017-06-24T20:45:19.927Z,90.50
2017-06-24T20:47:47.527Z,90.70
2017-06-24T20:50:15.153Z,90.70
2017-06-24T20:52:42.756Z,90.60
2017-06-24T20:55:11.178Z,90.80
2017-06-24T20:57:38.737Z,90.70
2017-06-24T21:00:06.317Z,90.90
2017-06-24T21:02:34.250Z,91.10
2017-06-24T21:05:01.834Z,91.30
2017-06-24T21:07:29.414Z,91.10
2017-06-24T21:09:57.050Z,91.20
2017-06-24T21:12:24.637Z,91.30
2017-06-24T21:14:52.226Z,91.40
2017-06-24T21:17:19.802Z,91.50
2017-06-24T21:19:48.154Z,91.30
2017-06-24T21:22:15.790Z,91.20
2017-06-24T21:24:43.377Z,91.30
2017-06-24T21:27:10.956Z,91.30
2017-06-24T21:29:38.834Z,91.10
2017-06-24T21:32:06.429Z,91.10
2017-06-24T21:34:33.993Z,91.10
2017-06-24T21:37:01.594Z,91.20
2017-06-24T21:39:29.323Z,91.00
2017-06-24T21:41:56.905Z,91.10
2017-06-24T21:44:24.482Z,91.10
2017-06-24T21:46:52.097Z,91.20
2017-06-24T21:49:19.693Z,91.30
2017-06-24T21:51:47.258Z,91.30
2017-06-24T21:54:14.854Z,91.20
2017-06-24T21:56:42.454Z,91.20
2017-06-24T21:59:10.037Z,91.20
2017-06-24T22:01:37.630Z,91.30
2017-06-24T22:04:06.042Z,91.20
2017-06-24T22:06:33.707Z,91.20
2017-06-24T22:09:01.438Z,91.10
2017-06-24T22:11:29.779Z,91.50
2017-06-24T22:13:57.350Z,91.50
2017-06-24T22:16:24.950Z,91.40
2017-06-24T22:18:52.541Z,91.40
2017-06-24T22:21:20.135Z,91.50
2017-06-24T22:23:47.755Z,91.50
2017-06-24T22:26:15.329Z,91.50
2017-06-24T22:28:42.933Z,91.50
2017-06-24T22:31:10.526Z,91.20
2017-06-24T22:33:38.111Z,91.10
2017-06-24T22:36:05.747Z,91.40
2017-06-24T22:38:33.303Z,91.10
2017-06-24T22:41:00.919Z,91.20
2017-06-24T22:43:28.514Z,91.20
2017-06-24T22:45:56.854Z,91.10
2017-06-24T22:48:24.480Z,91.10
2017-06-24T22:50:52.086Z,91.10
2017-06-24T22:53:19.677Z,90.90
2017-06-24T22:55:48.010Z,90.80
2017-06-24T22:58:15.624Z,90.80
2017-06-24T23:00:43.987Z,90.90
2017-06-24T23:03:11.557Z,90.90
2017-06-24T23:05:39.910Z,91.60
2017-06-24T23:08:07.494Z,91.20
2017-06-24T23:10:35.833Z,90.90
2017-06-24T23:13:03.441Z,90.90
2017-06-24T23:15:32.030Z,90.70
2017-06-24T23:17:59.609Z,90.70
2017-06-24T23:20:27.237Z,90.50
2017-06-24T23:22:54.815Z,90.70
2017-06-24T23:25:23.186Z,90.50
2017-06-24T23:27:51.546Z,90.40
2017-06-24T23:30:19.139Z,90.40
2017-06-24T23:32:46.733Z,90.50
2017-06-24T23:35:14.312Z,90.40
2017-06-24T23:37:41.934Z,90.60
2017-06-24T23:40:09.513Z,90.30
2017-06-24T23:42:37.101Z,90.40
2017-06-24T23:45:04.698Z,90.40
2017-06-24T23:47:32.279Z,90.20
2017-06-24T23:49:59.881Z,90.20
2017-06-24T23:52:27.473Z,90.50
2017-06-24T23:54:55.809Z,90.20
2017-06-24T23:57:23.443Z,90.20
2017-06-24T23:59:51.011Z,90.40
